Time;durP1;ratioP1;P1;durP2;ratioP2;P2;SDS_P1;SDS_P2;PMS_P1;PMS_P2;Temp;Humidity;BMP_temperature;BMP_pressure;BME280_temperature;BME280_humidity;BME280_pressure;Samples;Min_cycle;Max_cycle;Signal;HPM_P1;HPM_P2
2023/10/18 08:46:05;;;;;;;5.07;3.70;;;;;;;;;;5366845;23;20108;-69
2023/10/18 08:48:38;;;;;;;4.93;4.10;;;;;;;;;;4861882;29;20089;-67
2023/10/18 08:51:05;;;;;;;5.18;4.07;;;;;;;;;;4877114;29;20033;-71
2023/10/18 08:53:31;;;;;;;4.50;3.50;;;;;;;;;;4876831;29;20120;-68
2023/10/18 08:55:58;;;;;;;4.15;3.65;;;;;;;;;;4877520;29;20108;-68
2023/10/18 08:58:30;;;;;;;5.47;4.20;;;;;;;;;;4878326;29;20033;-67
2023/10/18 09:03:24;;;;;;;4.93;3.90;;;;;;;;;;4878445;29;20044;-70
2023/10/18 09:05:53;;;;;;;5.18;4.00;;;;;;;;;;4878611;29;20490;-69
2023/10/18 09:08:19;;;;;;;4.57;3.55;;;;;;;;;;4878494;29;20398;-69
2023/10/18 09:10:55;;;;;;;4.88;4.05;;;;;;;;;;4878752;29;20040;-69
2023/10/18 09:18:26;;;;;;;8.00;3.88;;;;;;;;;;4878418;29;20048;-69
2023/10/18 09:20:55;;;;;;;4.20;3.78;;;;;;;;;;4878294;29;20076;-72
2023/10/18 09:23:25;;;;;;;4.60;3.92;;;;;;;;;;4861585;29;20037;-68
2023/10/18 09:25:51;;;;;;;4.70;3.72;;;;;;;;;;4878288;29;20041;-69
2023/10/18 09:28:30;;;;;;;4.18;3.72;;;;;;;;;;4878245;29;20030;-69
2023/10/18 09:31:01;;;;;;;4.82;3.67;;;;;;;;;;4878315;29;20029;-69
2023/10/18 09:33:33;;;;;;;4.47;3.95;;;;;;;;;;4878200;29;20551;-70
2023/10/18 09:36:18;;;;;;;4.50;3.60;;;;;;;;;;4878226;29;20033;-68
2023/10/18 09:38:44;;;;;;;6.80;4.10;;;;;;;;;;4878361;29;20108;-70
2023/10/18 09:41:10;;;;;;;4.45;3.85;;;;;;;;;;4880951;29;20438;-68
2023/10/18 09:43:36;;;;;;;3.72;3.33;;;;;;;;;;4881167;29;20116;-69
2023/10/18 09:46:03;;;;;;;4.35;3.95;;;;;;;;;;4880712;29;20124;-69
2023/10/18 09:48:32;;;;;;;6.00;4.28;;;;;;;;;;4881109;29;20501;-69
2023/10/18 09:51:09;;;;;;;4.25;3.67;;;;;;;;;;4881375;29;20043;-70
2023/10/18 09:53:49;;;;;;;5.47;3.83;;;;;;;;;;4881041;29;20029;-69
2023/10/18 09:56:17;;;;;;;5.93;4.20;;;;;;;;;;4879971;29;20060;-69
2023/10/18 09:58:48;;;;;;;5.45;3.83;;;;;;;;;;4881142;29;20264;-69
2023/10/18 10:01:53;;;;;;;3.92;3.50;;;;;;;;;;4881272;29;20447;-68
2023/10/18 10:04:21;;;;;;;4.28;3.88;;;;;;;;;;4880964;29;20032;-68
2023/10/18 10:06:52;;;;;;;5.85;3.95;;;;;;;;;;4881185;29;20414;-68
2023/10/18 10:09:28;;;;;;;4.10;3.50;;;;;;;;;;4881174;29;20391;-69
2023/10/18 10:11:54;;;;;;;4.22;3.67;;;;;;;;;;4880999;29;20110;-69
2023/10/18 10:14:22;;;;;;;5.85;3.80;;;;;;;;;;4881028;29;20035;-69
2023/10/18 10:17:10;;;;;;;5.32;3.70;;;;;;;;;;4881039;29;20106;-69
2023/10/18 10:19:44;;;;;;;6.10;3.65;;;;;;;;;;4880900;29;20112;-69
2023/10/18 10:22:12;;;;;;;5.55;3.80;;;;;;;;;;4880935;29;20033;-69
2023/10/18 10:24:51;;;;;;;4.22;3.80;;;;;;;;;;4880383;29;20032;-70
2023/10/18 10:27:41;;;;;;;5.68;3.80;;;;;;;;;;4880725;29;20506;-69
2023/10/18 10:30:25;;;;;;;5.40;3.78;;;;;;;;;;4880802;29;20037;-69
2023/10/18 10:32:52;;;;;;;4.70;3.65;;;;;;;;;;4880568;29;20080;-69
2023/10/18 10:35:24;;;;;;;4.40;3.63;;;;;;;;;;4880900;29;20036;-68
2023/10/18 10:37:54;;;;;;;4.00;3.60;;;;;;;;;;4880420;29;20025;-68
2023/10/18 10:43:09;;;;;;;5.03;3.72;;;;;;;;;;4880695;29;20107;-68
2023/10/18 10:45:54;;;;;;;4.18;3.30;;;;;;;;;;4880334;29;20115;-68
2023/10/18 10:50:57;;;;;;;4.25;3.38;;;;;;;;;;4880624;29;20439;-68
2023/10/18 10:53:45;;;;;;;6.95;3.97;;;;;;;;;;4880102;29;20033;-70
2023/10/18 10:56:26;;;;;;;4.95;3.67;;;;;;;;;;4880411;29;20033;-67
2023/10/18 10:59:19;;;;;;;5.38;3.83;;;;;;;;;;4880458;29;20037;-65
2023/10/18 11:04:25;;;;;;;5.78;3.75;;;;;;;;;;4880425;29;20123;-66
2023/10/18 11:06:57;;;;;;;4.45;3.72;;;;;;;;;;4880069;29;20045;-68
2023/10/18 11:09:32;;;;;;;3.78;3.33;;;;;;;;;;4880021;29;20489;-67
2023/10/18 11:12:07;;;;;;;3.97;3.58;;;;;;;;;;4879908;29;20474;-68
2023/10/18 11:14:35;;;;;;;5.20;4.00;;;;;;;;;;4880235;29;20028;-66
2023/10/18 11:17:09;;;;;;;4.68;3.58;;;;;;;;;;4879906;29;20067;-67
2023/10/18 11:19:40;;;;;;;4.90;3.65;;;;;;;;;;4879889;29;20033;-72
2023/10/18 11:22:07;;;;;;;4.78;3.42;;;;;;;;;;4880015;29;20037;-66
2023/10/18 11:24:32;;;;;;;7.95;3.90;;;;;;;;;;4879789;29;20197;-66
2023/10/18 11:26:58;;;;;;;8.00;4.18;;;;;;;;;;4879676;29;20621;-72
2023/10/18 11:29:24;;;;;;;5.35;3.95;;;;;;;;;;4879421;29;20025;-65
2023/10/18 11:31:58;;;;;;;11.35;4.50;;;;;;;;;;4879601;29;20036;-67
2023/10/18 11:34:27;;;;;;;9.07;4.15;;;;;;;;;;4879641;29;20100;-65
2023/10/18 11:37:01;;;;;;;4.65;3.88;;;;;;;;;;4879438;29;20025;-66
2023/10/18 11:39:32;;;;;;;7.40;3.40;;;;;;;;;;4879459;29;20077;-66
2023/10/18 11:41:59;;;;;;;7.82;4.15;;;;;;;;;;4879533;29;20582;-66
2023/10/18 11:44:31;;;;;;;5.45;3.95;;;;;;;;;;4879385;29;20049;-66
2023/10/18 11:47:11;;;;;;;7.07;4.00;;;;;;;;;;4879228;29;20052;-66
2023/10/18 11:49:39;;;;;;;6.47;3.95;;;;;;;;;;4879540;29;20050;-66
2023/10/18 11:52:25;;;;;;;7.60;4.55;;;;;;;;;;4879121;29;20035;-66
2023/10/18 11:54:54;;;;;;;7.32;4.22;;;;;;;;;;4879277;29;20029;-66
2023/10/18 11:57:29;;;;;;;11.18;4.25;;;;;;;;;;4879164;29;20383;-66
2023/10/18 12:00:47;;;;;;;9.82;4.47;;;;;;;;;;4879156;29;20120;-69
2023/10/18 12:02:45;;;;;;;6.97;4.43;;;;;;;;;;4865296;29;20041;-66
2023/10/18 12:05:14;;;;;;;12.73;4.38;;;;;;;;;;4879002;29;20025;-66
2023/10/18 12:07:44;;;;;;;9.35;3.90;;;;;;;;;;4878984;29;20029;-67
2023/10/18 12:10:27;;;;;;;9.88;4.40;;;;;;;;;;4878934;29;20045;-66
2023/10/18 12:12:53;;;;;;;11.70;4.10;;;;;;;;;;4862189;29;20033;-66
2023/10/18 12:15:19;;;;;;;7.18;3.75;;;;;;;;;;4879131;29;20039;-66
2023/10/18 12:17:46;;;;;;;6.18;3.67;;;;;;;;;;4879183;29;20482;-66
2023/10/18 12:20:12;;;;;;;7.30;3.70;;;;;;;;;;4878879;29;20116;-66
2023/10/18 12:22:42;;;;;;;8.32;4.03;;;;;;;;;;4879049;29;20119;-66
2023/10/18 12:25:08;;;;;;;5.82;3.65;;;;;;;;;;4878931;29;20033;-67
2023/10/18 12:27:34;;;;;;;6.47;3.63;;;;;;;;;;4879136;29;20037;-68
2023/10/18 12:32:51;;;;;;;6.63;3.85;;;;;;;;;;4849590;29;20140;-67
2023/10/18 12:35:19;;;;;;;8.27;3.88;;;;;;;;;;4879119;29;20435;-67
2023/10/18 12:37:46;;;;;;;5.97;3.60;;;;;;;;;;4878765;29;20017;-67
2023/10/18 12:40:27;;;;;;;4.22;3.38;;;;;;;;;;4878602;29;20104;-67
2023/10/18 12:42:58;;;;;;;6.20;3.40;;;;;;;;;;4878676;29;20045;-65
2023/10/18 12:45:23;;;;;;;9.52;3.63;;;;;;;;;;4878851;29;20387;-65
2023/10/18 12:47:51;;;;;;;6.22;3.65;;;;;;;;;;4878564;29;20035;-66
2023/10/18 12:50:21;;;;;;;6.72;3.50;;;;;;;;;;4878817;29;20029;-66
2023/10/18 12:53:16;;;;;;;;;;;;;;;;;;4877134;29;20036;-66
2023/10/18 12:55:32;;;;;;;4.82;3.60;;;;;;;;;;4875581;29;20269;-65
2023/10/18 12:57:59;;;;;;;4.72;3.50;;;;;;;;;;4878629;29;20389;-64
2023/10/18 13:00:26;;;;;;;8.02;3.85;;;;;;;;;;4878052;29;20075;-66
2023/10/18 13:05:22;;;;;;;8.65;3.60;;;;;;;;;;4878751;29;20489;-67
2023/10/18 13:07:52;;;;;;;5.40;3.60;;;;;;;;;;4878397;29;20029;-66
2023/10/18 13:10:35;;;;;;;6.15;3.40;;;;;;;;;;4877096;29;20029;-66
2023/10/18 13:13:09;;;;;;;4.30;3.55;;;;;;;;;;4878300;29;20161;-67
2023/10/18 13:15:34;;;;;;;6.32;3.60;;;;;;;;;;4880934;29;20629;-67
2023/10/18 13:18:00;;;;;;;4.65;3.55;;;;;;;;;;4881875;29;20024;-67
2023/10/18 13:20:34;;;;;;;4.40;3.47;;;;;;;;;;4865182;29;20036;-67
2023/10/18 13:23:01;;;;;;;6.47;3.95;;;;;;;;;;4882100;29;20359;-66
2023/10/18 13:25:36;;;;;;;9.23;4.22;;;;;;;;;;4881772;29;20025;-66
2023/10/18 13:28:05;;;;;;;8.45;3.72;;;;;;;;;;4881872;29;20482;-66
2023/10/18 13:30:32;;;;;;;9.43;3.90;;;;;;;;;;4881912;29;20040;-66
2023/10/18 13:33:01;;;;;;;6.68;3.80;;;;;;;;;;4880286;29;20040;-67
2023/10/18 13:35:28;;;;;;;12.37;3.57;;;;;;;;;;4882214;29;20116;-67
2023/10/18 13:37:55;;;;;;;3.65;3.28;;;;;;;;;;4883183;29;20029;-66
2023/10/18 13:40:21;;;;;;;4.13;3.47;;;;;;;;;;4881593;29;20025;-66
2023/10/18 13:42:50;;;;;;;7.38;3.42;;;;;;;;;;4881461;29;20033;-75
2023/10/18 13:45:16;;;;;;;4.10;3.35;;;;;;;;;;4881331;29;20053;-70
2023/10/18 13:47:41;;;;;;;8.18;3.05;;;;;;;;;;4881466;29;20399;-67
2023/10/18 13:50:10;;;;;;;9.27;3.30;;;;;;;;;;4864786;29;20036;-67
2023/10/18 13:52:38;;;;;;;4.90;3.20;;;;;;;;;;4881406;29;20073;-65
2023/10/18 13:55:04;;;;;;;8.40;4.13;;;;;;;;;;4881195;29;20029;-65
2023/10/18 13:57:30;;;;;;;14.25;3.67;;;;;;;;;;4881283;29;20080;-66
2023/10/18 13:59:59;;;;;;;7.20;4.20;;;;;;;;;;4881202;29;20135;-65
2023/10/18 14:02:29;;;;;;;6.45;3.75;;;;;;;;;;4864685;29;20483;-66
2023/10/18 14:04:54;;;;;;;9.60;3.92;;;;;;;;;;4881600;29;20403;-67
2023/10/18 14:07:21;;;;;;;4.18;3.50;;;;;;;;;;4880954;29;20100;-68
2023/10/18 14:09:47;;;;;;;7.18;3.45;;;;;;;;;;4880988;29;20025;-65
2023/10/18 14:12:13;;;;;;;6.78;4.03;;;;;;;;;;4881069;29;20102;-66
2023/10/18 14:14:39;;;;;;;7.82;3.90;;;;;;;;;;4881164;29;20185;-65
2023/10/18 14:17:04;;;;;;;7.82;5.25;;;;;;;;;;4881050;29;20120;-71
2023/10/18 14:19:30;;;;;;;5.45;3.95;;;;;;;;;;4880834;29;20037;-69
2023/10/18 14:21:56;;;;;;;6.63;4.68;;;;;;;;;;4864297;29;20033;-69
2023/10/18 14:24:28;;;;;;;7.20;4.72;;;;;;;;;;4880880;29;20021;-69
2023/10/18 14:26:54;;;;;;;8.90;5.80;;;;;;;;;;4880606;29;20250;-71
2023/10/18 14:29:23;;;;;;;10.55;5.50;;;;;;;;;;4880709;29;20029;-70
2023/10/18 14:31:48;;;;;;;8.57;5.10;;;;;;;;;;4879442;29;20490;-70
2023/10/18 14:34:15;;;;;;;9.52;5.70;;;;;;;;;;4880494;29;20057;-69
2023/10/18 14:36:41;;;;;;;7.70;5.65;;;;;;;;;;4880664;29;20056;-70
2023/10/18 14:39:06;;;;;;;8.25;5.05;;;;;;;;;;4879729;29;20064;-71
2023/10/18 14:41:32;;;;;;;8.38;5.90;;;;;;;;;;4879488;29;20033;-71
2023/10/18 14:43:58;;;;;;;8.02;6.20;;;;;;;;;;4863435;29;20040;-70
2023/10/18 14:46:24;;;;;;;8.32;6.38;;;;;;;;;;4879103;29;20045;-70
2023/10/18 14:48:50;;;;;;;8.35;6.97;;;;;;;;;;4880004;29;20089;-70
2023/10/18 14:51:16;;;;;;;15.38;6.30;;;;;;;;;;4879096;29;20029;-72
2023/10/18 14:53:43;;;;;;;18.85;7.40;;;;;;;;;;4880121;29;20085;-69
2023/10/18 14:56:16;;;;;;;13.80;6.80;;;;;;;;;;4880261;29;20089;-71
2023/10/18 14:58:43;;;;;;;21.45;7.25;;;;;;;;;;4880299;29;20025;-72
2023/10/18 15:01:12;;;;;;;8.52;6.03;;;;;;;;;;4880243;29;20455;-71
2023/10/18 15:03:49;;;;;;;13.00;6.03;;;;;;;;;;4880084;29;20032;-73
2023/10/18 15:06:19;;;;;;;9.20;6.28;;;;;;;;;;4880157;29;20033;-72
2023/10/18 15:08:46;;;;;;;9.30;6.70;;;;;;;;;;4880065;29;20084;-70
2023/10/18 15:11:20;;;;;;;13.07;5.95;;;;;;;;;;4879970;29;20115;-69
2023/10/18 15:13:49;;;;;;;8.05;6.07;;;;;;;;;;4879901;29;20036;-71
2023/10/18 15:16:16;;;;;;;24.00;6.55;;;;;;;;;;4879892;29;20037;-72
2023/10/18 15:18:42;;;;;;;12.10;6.03;;;;;;;;;;4879893;29;20025;-71
2023/10/18 15:21:10;;;;;;;10.95;6.03;;;;;;;;;;4879808;29;20550;-71
2023/10/18 15:23:36;;;;;;;8.55;6.20;;;;;;;;;;4879777;29;20040;-71
2023/10/18 15:26:03;;;;;;;8.90;6.03;;;;;;;;;;4879782;29;20029;-72
2023/10/18 15:28:31;;;;;;;9.20;5.90;;;;;;;;;;4879690;29;20129;-71
2023/10/18 15:31:10;;;;;;;12.13;5.60;;;;;;;;;;4879622;29;20029;-72
2023/10/18 15:33:40;;;;;;;9.07;5.68;;;;;;;;;;4879514;29;20107;-72
2023/10/18 15:36:17;;;;;;;9.23;4.97;;;;;;;;;;4879611;29;20398;-72
2023/10/18 15:38:44;;;;;;;9.45;6.28;;;;;;;;;;4878766;29;20028;-71
2023/10/18 15:41:10;;;;;;;13.80;6.88;;;;;;;;;;4879495;29;20025;-71
2023/10/18 15:43:43;;;;;;;9.32;6.47;;;;;;;;;;4879344;29;20024;-70
2023/10/18 15:46:10;;;;;;;11.57;6.30;;;;;;;;;;4879169;29;20041;-70
2023/10/18 15:48:36;;;;;;;12.23;6.05;;;;;;;;;;4879404;29;20029;-70
2023/10/18 15:51:01;;;;;;;10.77;5.70;;;;;;;;;;4878087;29;20040;-70
2023/10/18 15:53:28;;;;;;;10.57;5.70;;;;;;;;;;4879394;29;20474;-70
2023/10/18 15:55:54;;;;;;;9.35;5.57;;;;;;;;;;4879072;29;20053;-70
2023/10/18 15:58:19;;;;;;;8.98;5.63;;;;;;;;;;4879378;29;20130;-71
2023/10/18 16:00:45;;;;;;;9.98;5.85;;;;;;;;;;4879326;29;20518;-71
2023/10/18 16:03:13;;;;;;;9.52;5.25;;;;;;;;;;4879049;29;20125;-71
2023/10/18 16:05:38;;;;;;;11.35;5.68;;;;;;;;;;4879099;29;20036;-71
2023/10/18 16:08:04;;;;;;;10.60;5.53;;;;;;;;;;4879013;29;20028;-70
2023/10/18 16:10:31;;;;;;;8.43;5.60;;;;;;;;;;4879079;29;20025;-71
2023/10/18 16:12:56;;;;;;;7.68;5.70;;;;;;;;;;4878969;29;20037;-69
2023/10/18 16:15:26;;;;;;;8.32;5.53;;;;;;;;;;4879189;29;20036;-69
2023/10/18 16:17:51;;;;;;;12.55;5.20;;;;;;;;;;4878916;29;20486;-73
2023/10/18 16:20:17;;;;;;;10.75;5.90;;;;;;;;;;4878848;29;20085;-71
2023/10/18 16:22:44;;;;;;;9.27;5.80;;;;;;;;;;4879075;29;20052;-70
2023/10/18 16:25:10;;;;;;;10.02;6.00;;;;;;;;;;4878737;29;20040;-70
2023/10/18 16:27:36;;;;;;;13.52;6.22;;;;;;;;;;4878865;29;20025;-69
2023/10/18 16:30:05;;;;;;;13.15;6.18;;;;;;;;;;4878779;29;20028;-70
2023/10/18 16:32:31;;;;;;;10.98;6.53;;;;;;;;;;4878752;29;20561;-69
2023/10/18 16:34:57;;;;;;;9.65;6.35;;;;;;;;;;4878626;29;20068;-69
2023/10/18 16:37:24;;;;;;;14.43;6.20;;;;;;;;;;4878731;29;20056;-68
2023/10/18 16:39:50;;;;;;;11.80;5.68;;;;;;;;;;4878685;29;20100;-68
2023/10/18 16:42:15;;;;;;;9.07;6.05;;;;;;;;;;4878517;29;20084;-68
2023/10/18 16:44:41;;;;;;;10.73;6.00;;;;;;;;;;4878669;29;20112;-68
2023/10/18 16:47:07;;;;;;;8.40;5.32;;;;;;;;;;4878546;29;20086;-68
2023/10/18 16:49:33;;;;;;;7.95;5.65;;;;;;;;;;4880899;29;20025;-68
2023/10/18 16:51:59;;;;;;;11.00;5.93;;;;;;;;;;4882337;29;20513;-69
2023/10/18 16:54:26;;;;;;;12.10;6.00;;;;;;;;;;4882416;29;20040;-69
2023/10/18 16:56:52;;;;;;;12.07;6.72;;;;;;;;;;4882354;29;20033;-69
2023/10/18 16:59:19;;;;;;;10.13;6.35;;;;;;;;;;4882380;29;20025;-69
2023/10/18 17:01:45;;;;;;;8.85;5.85;;;;;;;;;;4882235;29;20077;-73
2023/10/18 17:04:11;;;;;;;14.18;6.50;;;;;;;;;;4865323;29;20033;-68
2023/10/18 17:06:37;;;;;;;12.85;6.28;;;;;;;;;;4882197;29;20029;-68
2023/10/18 17:09:03;;;;;;;11.93;6.55;;;;;;;;;;4882157;29;20037;-68
2023/10/18 17:11:32;;;;;;;11.55;6.60;;;;;;;;;;4882102;29;20033;-68
2023/10/18 17:13:58;;;;;;;10.25;6.70;;;;;;;;;;4882145;29;20035;-66
2023/10/18 17:16:25;;;;;;;11.85;5.90;;;;;;;;;;4882059;29;20115;-69
2023/10/18 17:18:54;;;;;;;8.30;5.88;;;;;;;;;;4882210;29;20108;-68
2023/10/18 17:21:21;;;;;;;15.63;7.10;;;;;;;;;;4881969;29;20040;-68
2023/10/18 17:23:51;;;;;;;11.90;6.65;;;;;;;;;;4881975;29;20029;-67
2023/10/18 17:26:17;;;;;;;23.75;6.93;;;;;;;;;;4880396;29;20045;-66
2023/10/18 17:28:43;;;;;;;10.70;6.85;;;;;;;;;;4881826;29;20071;-67
2023/10/18 17:31:10;;;;;;;13.57;7.47;;;;;;;;;;4878849;29;20037;-66
2023/10/18 17:33:35;;;;;;;11.40;7.28;;;;;;;;;;4881561;29;20036;-67
2023/10/18 17:36:01;;;;;;;15.85;6.82;;;;;;;;;;4881765;29;20089;-66
2023/10/18 17:38:27;;;;;;;11.18;7.57;;;;;;;;;;4881865;29;20025;-66
2023/10/18 17:40:52;;;;;;;11.40;6.97;;;;;;;;;;4881792;29;20558;-67
2023/10/18 17:43:18;;;;;;;10.80;6.78;;;;;;;;;;4881601;29;20074;-66
2023/10/18 17:45:44;;;;;;;11.95;7.07;;;;;;;;;;4881380;29;20055;-68
2023/10/18 17:48:14;;;;;;;13.50;7.20;;;;;;;;;;4881358;29;20033;-67
2023/10/18 17:50:40;;;;;;;;;;;;;;;;;;4882125;29;20113;-66
2023/10/18 17:53:06;;;;;;;11.23;7.22;;;;;;;;;;4881185;29;20337;-72
2023/10/18 17:55:32;;;;;;;10.35;6.95;;;;;;;;;;4881323;29;20388;-67
2023/10/18 17:58:01;;;;;;;12.05;7.00;;;;;;;;;;4881352;29;20037;-67
2023/10/18 18:00:28;;;;;;;12.65;7.25;;;;;;;;;;4880626;29;20071;-65
2023/10/18 18:02:58;;;;;;;10.35;7.38;;;;;;;;;;4881251;29;20120;-69
2023/10/18 18:05:31;;;;;;;13.20;6.80;;;;;;;;;;4881338;29;20088;-67
2023/10/18 18:07:58;;;;;;;9.40;6.00;;;;;;;;;;4881039;29;20043;-65
2023/10/18 18:10:27;;;;;;;10.68;6.50;;;;;;;;;;4881439;29;20104;-67
2023/10/18 18:12:57;;;;;;;11.70;6.17;;;;;;;;;;4881118;29;20113;-66
2023/10/18 18:15:24;;;;;;;14.00;6.93;;;;;;;;;;4880958;29;20037;-65
2023/10/18 18:17:50;;;;;;;12.18;7.07;;;;;;;;;;4877813;29;20063;-66
2023/10/18 18:20:22;;;;;;;9.75;6.25;;;;;;;;;;4864778;29;20033;-67
2023/10/18 18:22:49;;;;;;;8.43;5.95;;;;;;;;;;4862583;29;20376;-66
2023/10/18 18:25:14;;;;;;;10.80;6.32;;;;;;;;;;4862557;29;20112;-66
2023/10/18 18:27:40;;;;;;;11.52;6.63;;;;;;;;;;4867160;29;20120;-66
2023/10/18 18:30:10;;;;;;;8.43;6.18;;;;;;;;;;4869189;29;20025;-67
2023/10/18 18:32:39;;;;;;;16.10;7.30;;;;;;;;;;4862039;29;20116;-66
2023/10/18 18:35:09;;;;;;;8.95;6.03;;;;;;;;;;4862107;29;20351;-66
2023/10/18 18:37:35;;;;;;;;;;;;;;;;;;4845798;29;20038;-66
2023/10/18 18:40:03;;;;;;;11.77;6.40;;;;;;;;;;4845364;29;19920;-66
2023/10/18 18:42:29;;;;;;;11.73;6.80;;;;;;;;;;4861990;29;20037;-66
2023/10/18 18:44:54;;;;;;;12.60;6.72;;;;;;;;;;4869090;29;20546;-70
2023/10/18 18:47:23;;;;;;;9.30;6.22;;;;;;;;;;4869173;29;20028;-68
2023/10/18 18:49:48;;;;;;;12.18;6.43;;;;;;;;;;4873453;29;20132;-66
2023/10/18 18:52:14;;;;;;;8.40;6.20;;;;;;;;;;4878583;29;20106;-68
2023/10/18 18:54:42;;;;;;;10.23;6.68;;;;;;;;;;4879082;29;20029;-73
2023/10/18 18:57:10;;;;;;;10.85;6.20;;;;;;;;;;4878874;29;20391;-66
2023/10/18 18:59:39;;;;;;;8.45;6.32;;;;;;;;;;4878751;29;20489;-66
2023/10/18 19:02:04;;;;;;;9.43;6.28;;;;;;;;;;4878622;29;20048;-66
2023/10/18 19:04:30;;;;;;;9.38;6.00;;;;;;;;;;4878689;29;20399;-66
2023/10/18 19:06:55;;;;;;;8.68;6.35;;;;;;;;;;4878501;29;20055;-67
2023/10/18 19:09:23;;;;;;;9.07;5.85;;;;;;;;;;4861858;29;20033;-66
2023/10/18 19:11:49;;;;;;;10.18;6.43;;;;;;;;;;4877778;29;20060;-67
2023/10/18 19:14:15;;;;;;;10.85;6.10;;;;;;;;;;4878061;29;20052;-67
2023/10/18 19:16:41;;;;;;;9.13;6.63;;;;;;;;;;4874492;29;20044;-71
2023/10/18 19:19:06;;;;;;;9.85;6.50;;;;;;;;;;4859565;29;20029;-67
2023/10/18 19:21:33;;;;;;;10.52;6.70;;;;;;;;;;4843132;29;20030;-67
2023/10/18 19:24:00;;;;;;;11.57;6.38;;;;;;;;;;4859562;29;20030;-66
2023/10/18 19:26:26;;;;;;;11.35;6.47;;;;;;;;;;4859497;29;20037;-67
2023/10/18 19:28:52;;;;;;;10.00;6.00;;;;;;;;;;4859523;29;20029;-67
2023/10/18 19:31:20;;;;;;;9.27;6.28;;;;;;;;;;4859617;29;20037;-67
2023/10/18 19:33:46;;;;;;;7.45;6.25;;;;;;;;;;4859281;29;20034;-66
2023/10/18 19:36:19;;;;;;;9.68;7.28;;;;;;;;;;4859641;29;20057;-64
2023/10/18 19:38:47;;;;;;;9.95;6.85;;;;;;;;;;4859444;29;20387;-66
2023/10/18 19:41:14;;;;;;;9.98;6.22;;;;;;;;;;4859324;29;20466;-65
2023/10/18 19:43:41;;;;;;;8.50;6.25;;;;;;;;;;4859759;29;20033;-65
2023/10/18 19:46:08;;;;;;;9.90;6.10;;;;;;;;;;4842364;29;20049;-64
2023/10/18 19:48:33;;;;;;;9.25;5.47;;;;;;;;;;4859160;29;20037;-65
2023/10/18 19:51:02;;;;;;;9.65;6.10;;;;;;;;;;4873797;29;20096;-64
2023/10/18 19:53:29;;;;;;;10.20;6.13;;;;;;;;;;4877601;29;20085;-65
2023/10/18 19:55:55;;;;;;;10.20;6.10;;;;;;;;;;4877522;29;20033;-65
2023/10/18 19:58:20;;;;;;;8.60;6.45;;;;;;;;;;4877659;29;20033;-64
2023/10/18 20:00:49;;;;;;;9.32;5.90;;;;;;;;;;4877527;29;20537;-65
2023/10/18 20:03:15;;;;;;;8.23;6.32;;;;;;;;;;4860745;29;20429;-70
2023/10/18 20:05:41;;;;;;;10.35;6.20;;;;;;;;;;4877551;29;20025;-64
2023/10/18 20:08:10;;;;;;;7.43;5.88;;;;;;;;;;4877431;29;20029;-65
2023/10/18 20:10:39;;;;;;;7.95;5.50;;;;;;;;;;4877527;29;20036;-72
2023/10/18 20:13:05;;;;;;;8.98;6.22;;;;;;;;;;4877239;29;20490;-65
2023/10/18 20:15:32;;;;;;;8.38;6.05;;;;;;;;;;4877650;29;20089;-64
2023/10/18 20:17:58;;;;;;;9.80;5.75;;;;;;;;;;4877284;29;20104;-65
2023/10/18 20:20:24;;;;;;;9.32;6.20;;;;;;;;;;4877299;29;20495;-66
2023/10/18 20:22:50;;;;;;;7.57;5.43;;;;;;;;;;4877134;29;20029;-65
2023/10/18 20:25:20;;;;;;;7.10;5.72;;;;;;;;;;4877284;29;20386;-64
2023/10/18 20:27:46;;;;;;;8.07;5.90;;;;;;;;;;4877185;29;20479;-65
2023/10/18 20:30:13;;;;;;;9.80;6.00;;;;;;;;;;4877059;29;20089;-65
2023/10/18 20:32:42;;;;;;;9.82;6.15;;;;;;;;;;4877071;29;20044;-64
2023/10/18 20:35:12;;;;;;;8.80;5.63;;;;;;;;;;4877335;29;20105;-64
2023/10/18 20:37:37;;;;;;;9.00;5.95;;;;;;;;;;4877006;29;20033;-65
2023/10/18 20:40:10;;;;;;;9.00;5.93;;;;;;;;;;4877275;29;20112;-65
2023/10/18 20:42:39;;;;;;;7.47;5.85;;;;;;;;;;4877354;29;20037;-64
2023/10/18 20:45:17;;;;;;;8.57;5.93;;;;;;;;;;4859847;29;20068;-64
2023/10/18 20:47:43;;;;;;;8.25;6.03;;;;;;;;;;4877298;29;20041;-65
2023/10/18 20:50:17;;;;;;;10.60;5.95;;;;;;;;;;4878432;29;20037;-64
2023/10/18 20:52:45;;;;;;;9.13;5.82;;;;;;;;;;4878396;29;20497;-71
2023/10/18 20:55:12;;;;;;;7.97;5.50;;;;;;;;;;4873284;29;20040;-66
2023/10/18 20:57:40;;;;;;;6.25;5.63;;;;;;;;;;4871038;29;20407;-74
2023/10/18 21:00:09;;;;;;;9.50;5.72;;;;;;;;;;4866276;29;20030;-72
2023/10/18 21:02:36;;;;;;;9.57;6.03;;;;;;;;;;4870486;29;20036;-67
2023/10/18 21:05:09;;;;;;;7.32;5.70;;;;;;;;;;4866480;29;20272;-66
2023/10/18 21:07:39;;;;;;;8.85;5.70;;;;;;;;;;4868306;29;20040;-67
2023/10/18 21:10:12;;;;;;;8.57;5.68;;;;;;;;;;4867264;29;20360;-67
2023/10/18 21:12:39;;;;;;;9.57;5.93;;;;;;;;;;4859856;29;20133;-68
2023/10/18 21:15:07;;;;;;;9.43;5.80;;;;;;;;;;4868353;29;20034;-67
2023/10/18 21:17:33;;;;;;;10.38;5.85;;;;;;;;;;4860165;29;20527;-67
2023/10/18 21:19:58;;;;;;;7.35;5.95;;;;;;;;;;4859976;29;20067;-72
2023/10/18 21:22:24;;;;;;;8.63;5.80;;;;;;;;;;4860135;29;20026;-66
2023/10/18 21:24:49;;;;;;;7.78;5.55;;;;;;;;;;4876295;29;20496;-71
2023/10/18 21:27:15;;;;;;;7.97;5.78;;;;;;;;;;4876601;29;20041;-66
2023/10/18 21:29:41;;;;;;;6.53;5.25;;;;;;;;;;4877028;29;20028;-69
2023/10/18 21:32:06;;;;;;;6.97;5.25;;;;;;;;;;4877199;29;20124;-70
2023/10/18 21:34:32;;;;;;;9.95;5.63;;;;;;;;;;4878088;29;20025;-67
2023/10/18 21:36:57;;;;;;;7.32;5.72;;;;;;;;;;4880837;29;20029;-67
2023/10/18 21:39:25;;;;;;;7.30;5.60;;;;;;;;;;4881668;29;20036;-67
2023/10/18 21:41:50;;;;;;;7.60;5.60;;;;;;;;;;4881881;29;20394;-68
2023/10/18 21:44:16;;;;;;;7.85;5.72;;;;;;;;;;4881579;29;20033;-68
2023/10/18 21:46:43;;;;;;;6.75;5.10;;;;;;;;;;4881581;29;20053;-66
2023/10/18 21:49:10;;;;;;;7.22;5.78;;;;;;;;;;4881832;29;20421;-71
2023/10/18 21:51:36;;;;;;;7.30;5.50;;;;;;;;;;4881848;29;20439;-67
2023/10/18 21:54:03;;;;;;;7.88;5.65;;;;;;;;;;4881412;29;20033;-67
2023/10/18 21:56:28;;;;;;;7.22;5.75;;;;;;;;;;4881633;29;20064;-67
2023/10/18 21:58:54;;;;;;;8.93;5.55;;;;;;;;;;4883060;29;20582;-76
2023/10/18 22:04:07;;;;;;;8.63;5.78;;;;;;;;;;4885405;29;20068;-76
2023/10/18 22:06:36;;;;;;;6.05;5.30;;;;;;;;;;4884563;29;20060;-73
2023/10/18 22:11:49;;;;;;;9.60;5.90;;;;;;;;;;4879901;29;20044;-74
2023/10/18 22:14:17;;;;;;;7.97;5.88;;;;;;;;;;4882253;29;20545;-75
2023/10/18 22:16:50;;;;;;;6.90;5.40;;;;;;;;;;4889255;29;20032;-76
2023/10/18 22:19:17;;;;;;;7.70;5.40;;;;;;;;;;4876984;29;20029;-76
2023/10/18 22:21:43;;;;;;;8.27;6.20;;;;;;;;;;4872703;29;20509;-76
2023/10/18 22:24:19;;;;;;;8.13;5.38;;;;;;;;;;4882823;29;20021;-74
2023/10/18 22:26:46;;;;;;;9.48;5.53;;;;;;;;;;4887759;29;20085;-76
2023/10/18 22:29:20;;;;;;;8.60;5.30;;;;;;;;;;4884067;29;20104;-76
2023/10/18 22:31:46;;;;;;;7.00;5.30;;;;;;;;;;4880409;29;20544;-74
2023/10/18 22:34:15;;;;;;;9.75;5.75;;;;;;;;;;4881683;29;20040;-79
2023/10/18 22:36:42;;;;;;;10.35;5.53;;;;;;;;;;4887450;29;20032;-77
